DLH9XV EPWA-EDDM
Flight info
| Callsign | DLH9XV |
|---|---|
| Flight time | 1h 12m |
| Altitude | 34000 |
| Route | SOXER N869 UVIVI DCT ELVOT DCT IPRUX DCT NIRGO T108 LANDU LANDU2A |
| Aircraft | A319/M-SDE2E3FGIJ1LORWXYZ/HB1 |
Departure
| Time | 2026-05-06 15:58 |
|---|---|
| Airport | Warsaw Chopin Airport (EPWA) |
Arrival
| Time | 2026-05-06 17:10 |
|---|---|
| Airport | Munich Airport (EDDM) |
| Time | Latitude | Longitude | Altitude | Speed | Heading |
|---|---|---|---|---|---|
| 2026-05-06 15:05 | 52.16915 | 20.97233 | 339 ft | 0 kts | 76° |
| 2026-05-06 15:51 | 52.16914 | 20.97222 | 339 ft | 4 kts | 76° |
| 2026-05-06 15:51 | 52.16907 | 20.97180 | 336 ft | 4 kts | 76° |
| 2026-05-06 15:52 | 52.16901 | 20.97138 | 334 ft | 4 kts | 80° |
| 2026-05-06 15:52 | 52.16899 | 20.97095 | 336 ft | 4 kts | 99° |
| 2026-05-06 15:52 | 52.16909 | 20.97059 | 333 ft | 4 kts | 146° |
| 2026-05-06 15:52 | 52.16913 | 20.97054 | 333 ft | 0 kts | 152° |
| 2026-05-06 15:54 | 52.16908 | 20.97059 | 333 ft | 3 kts | 152° |
| 2026-05-06 15:55 | 52.16865 | 20.97096 | 337 ft | 12 kts | 152° |
| 2026-05-06 15:55 | 52.16764 | 20.97183 | 337 ft | 19 kts | 152° |
| 2026-05-06 15:55 | 52.16635 | 20.97292 | 339 ft | 22 kts | 152° |
| 2026-05-06 15:55 | 52.16540 | 20.97495 | 334 ft | 25 kts | 113° |
| 2026-05-06 15:56 | 52.16468 | 20.97745 | 337 ft | 23 kts | 114° |
| 2026-05-06 15:56 | 52.16387 | 20.97785 | 339 ft | 5 kts | 208° |
| 2026-05-06 15:56 | 52.16381 | 20.97780 | 338 ft | 0 kts | 208° |
| 2026-05-06 15:56 | 52.16381 | 20.97779 | 338 ft | 1 kts | 208° |
| 2026-05-06 15:57 | 52.16367 | 20.97767 | 339 ft | 4 kts | 208° |
| 2026-05-06 15:57 | 52.16316 | 20.97725 | 339 ft | 12 kts | 213° |
| 2026-05-06 15:57 | 52.16324 | 20.97602 | 337 ft | 15 kts | 295° |
| 2026-05-06 15:57 | 52.16469 | 20.97088 | 336 ft | 91 kts | 294° |
| 2026-05-06 15:58 | 52.16823 | 20.95819 | 411 ft | 148 kts | 292° |
| 2026-05-06 15:58 | 52.17259 | 20.94263 | 1157 ft | 152 kts | 292° |
| 2026-05-06 15:58 | 52.17689 | 20.92687 | 1896 ft | 157 kts | 289° |
| 2026-05-06 15:58 | 52.18164 | 20.90958 | 2451 ft | 176 kts | 287° |
| 2026-05-06 15:59 | 52.18323 | 20.88906 | 2937 ft | 194 kts | 266° |
| 2026-05-06 15:59 | 52.18230 | 20.86564 | 3426 ft | 220 kts | 262° |
| 2026-05-06 15:59 | 52.18082 | 20.83942 | 4073 ft | 245 kts | 265° |
| 2026-05-06 15:59 | 52.18307 | 20.81098 | 5005 ft | 258 kts | 279° |
| 2026-05-06 16:00 | 52.18679 | 20.78197 | 5809 ft | 263 kts | 279° |
| 2026-05-06 16:00 | 52.19081 | 20.75286 | 6943 ft | 264 kts | 279° |
| 2026-05-06 16:00 | 52.19471 | 20.72362 | 8091 ft | 264 kts | 275° |
| 2026-05-06 16:00 | 52.19465 | 20.69390 | 9229 ft | 263 kts | 259° |
| 2026-05-06 16:01 | 52.18950 | 20.66525 | 10166 ft | 271 kts | 249° |
| 2026-05-06 16:01 | 52.18284 | 20.63526 | 10746 ft | 289 kts | 249° |
| 2026-05-06 16:01 | 52.17581 | 20.60404 | 11592 ft | 297 kts | 249° |
| 2026-05-06 16:01 | 52.16863 | 20.57222 | 12535 ft | 302 kts | 248° |
| 2026-05-06 16:02 | 52.16137 | 20.53987 | 13483 ft | 306 kts | 248° |
| 2026-05-06 16:02 | 52.15403 | 20.50701 | 14308 ft | 311 kts | 248° |
| 2026-05-06 16:02 | 52.14693 | 20.47357 | 15161 ft | 314 kts | 249° |
| 2026-05-06 16:02 | 52.13943 | 20.44017 | 16008 ft | 315 kts | 242° |
| 2026-05-06 16:03 | 52.12861 | 20.40901 | 16864 ft | 317 kts | 238° |
| 2026-05-06 16:03 | 52.11757 | 20.37780 | 17736 ft | 319 kts | 238° |
| 2026-05-06 16:03 | 52.10642 | 20.34639 | 18503 ft | 322 kts | 238° |
| 2026-05-06 16:03 | 52.09514 | 20.31465 | 19205 ft | 326 kts | 239° |
| 2026-05-06 16:04 | 52.08373 | 20.28253 | 19903 ft | 330 kts | 239° |
| 2026-05-06 16:04 | 52.07218 | 20.25003 | 20592 ft | 334 kts | 239° |
| 2026-05-06 16:04 | 52.06047 | 20.21714 | 21285 ft | 338 kts | 239° |
| 2026-05-06 16:04 | 52.04858 | 20.18393 | 21972 ft | 342 kts | 239° |
| 2026-05-06 16:05 | 52.03655 | 20.15035 | 22644 ft | 346 kts | 239° |
| 2026-05-06 16:05 | 52.02437 | 20.11629 | 23313 ft | 351 kts | 239° |
| 2026-05-06 16:05 | 52.01204 | 20.08187 | 23892 ft | 354 kts | 239° |
| 2026-05-06 16:05 | 51.99965 | 20.04736 | 24544 ft | 354 kts | 239° |
| 2026-05-06 16:06 | 51.98724 | 20.01279 | 25160 ft | 356 kts | 239° |
| 2026-05-06 16:06 | 51.97474 | 19.97803 | 25739 ft | 358 kts | 239° |
| 2026-05-06 16:06 | 51.96221 | 19.94297 | 26306 ft | 360 kts | 239° |
| 2026-05-06 16:06 | 51.94967 | 19.90767 | 26885 ft | 363 kts | 239° |
| 2026-05-06 16:07 | 51.93703 | 19.87207 | 27436 ft | 366 kts | 239° |
| 2026-05-06 16:07 | 51.92431 | 19.83628 | 28001 ft | 368 kts | 239° |
| 2026-05-06 16:07 | 51.91146 | 19.80028 | 28539 ft | 370 kts | 239° |
| 2026-05-06 16:07 | 51.89850 | 19.76413 | 29077 ft | 372 kts | 239° |
| 2026-05-06 16:08 | 51.88543 | 19.72775 | 29616 ft | 375 kts | 238° |
| 2026-05-06 16:08 | 51.87228 | 19.69121 | 30092 ft | 377 kts | 239° |
| 2026-05-06 16:08 | 51.85908 | 19.65441 | 30544 ft | 380 kts | 239° |
| 2026-05-06 16:08 | 51.84576 | 19.61732 | 30971 ft | 382 kts | 239° |
| 2026-05-06 16:09 | 51.83237 | 19.58013 | 31429 ft | 383 kts | 239° |
| 2026-05-06 16:09 | 51.81894 | 19.54299 | 32019 ft | 382 kts | 238° |
| 2026-05-06 16:09 | 51.80555 | 19.50601 | 32622 ft | 380 kts | 239° |
| 2026-05-06 16:09 | 51.79224 | 19.46929 | 33230 ft | 379 kts | 239° |
| 2026-05-06 16:10 | 51.77895 | 19.43268 | 33827 ft | 377 kts | 239° |
| 2026-05-06 16:10 | 51.76571 | 19.39617 | 34308 ft | 377 kts | 239° |
| 2026-05-06 16:10 | 51.75243 | 19.35966 | 34707 ft | 378 kts | 239° |
| 2026-05-06 16:10 | 51.73908 | 19.32309 | 35085 ft | 379 kts | 239° |
| 2026-05-06 16:11 | 51.72566 | 19.28642 | 35455 ft | 380 kts | 239° |
| 2026-05-06 16:11 | 51.71218 | 19.24957 | 35810 ft | 382 kts | 239° |
| 2026-05-06 16:11 | 51.69868 | 19.21266 | 36164 ft | 383 kts | 239° |
| 2026-05-06 16:11 | 51.68511 | 19.17557 | 36510 ft | 384 kts | 239° |
| 2026-05-06 16:12 | 51.67151 | 19.13841 | 36846 ft | 385 kts | 239° |
| 2026-05-06 16:12 | 51.65785 | 19.10123 | 37218 ft | 386 kts | 239° |
| 2026-05-06 16:12 | 51.64417 | 19.06406 | 37565 ft | 386 kts | 239° |
| 2026-05-06 16:12 | 51.63041 | 19.02678 | 37749 ft | 388 kts | 239° |
| 2026-05-06 16:13 | 51.60295 | 18.95243 | 37777 ft | 386 kts | 239° |
| 2026-05-06 16:13 | 51.57555 | 18.87834 | 37772 ft | 385 kts | 239° |
| 2026-05-06 16:14 | 51.54810 | 18.80434 | 37768 ft | 385 kts | 239° |
| 2026-05-06 16:14 | 51.52054 | 18.73050 | 37770 ft | 385 kts | 239° |
| 2026-05-06 16:15 | 51.49315 | 18.65725 | 37771 ft | 385 kts | 239° |
| 2026-05-06 16:15 | 51.46541 | 18.58336 | 37793 ft | 383 kts | 239° |
| 2026-05-06 16:16 | 51.43812 | 18.51071 | 37812 ft | 382 kts | 239° |
| 2026-05-06 16:16 | 51.41047 | 18.43736 | 37802 ft | 381 kts | 238° |
| 2026-05-06 16:17 | 51.38320 | 18.36523 | 37796 ft | 381 kts | 238° |
| 2026-05-06 16:17 | 51.35577 | 18.29277 | 37794 ft | 380 kts | 238° |
| 2026-05-06 16:18 | 51.32826 | 18.22056 | 37774 ft | 380 kts | 238° |
| 2026-05-06 16:18 | 51.30074 | 18.14857 | 37788 ft | 379 kts | 238° |
| 2026-05-06 16:19 | 51.27329 | 18.07687 | 37791 ft | 378 kts | 238° |
| 2026-05-06 16:19 | 51.24587 | 18.00542 | 37793 ft | 377 kts | 238° |
| 2026-05-06 16:20 | 51.21837 | 17.93417 | 37788 ft | 377 kts | 238° |
| 2026-05-06 16:20 | 51.19087 | 17.86310 | 37789 ft | 376 kts | 238° |
| 2026-05-06 16:21 | 51.16331 | 17.79211 | 37807 ft | 377 kts | 238° |
| 2026-05-06 16:21 | 51.13575 | 17.72124 | 37788 ft | 376 kts | 238° |
| 2026-05-06 16:22 | 51.10824 | 17.65053 | 37791 ft | 375 kts | 237° |
| 2026-05-06 16:22 | 51.08073 | 17.57999 | 37790 ft | 375 kts | 237° |
| 2026-05-06 16:23 | 51.05319 | 17.50965 | 37791 ft | 375 kts | 237° |
| 2026-05-06 16:23 | 51.02554 | 17.43949 | 37786 ft | 374 kts | 237° |
| 2026-05-06 16:24 | 50.99789 | 17.36947 | 37782 ft | 374 kts | 237° |
| 2026-05-06 16:24 | 50.97025 | 17.29951 | 37771 ft | 374 kts | 237° |
| 2026-05-06 16:25 | 50.94260 | 17.22950 | 37767 ft | 374 kts | 237° |
| 2026-05-06 16:25 | 50.91481 | 17.15966 | 37795 ft | 374 kts | 237° |
| 2026-05-06 16:26 | 50.88698 | 17.09000 | 37788 ft | 374 kts | 237° |
| 2026-05-06 16:26 | 50.85914 | 17.02043 | 37785 ft | 374 kts | 237° |
| 2026-05-06 16:27 | 50.83129 | 16.95094 | 37783 ft | 374 kts | 237° |
| 2026-05-06 16:27 | 50.80343 | 16.88154 | 37774 ft | 374 kts | 237° |
| 2026-05-06 16:28 | 50.77556 | 16.81221 | 37781 ft | 374 kts | 237° |
| 2026-05-06 16:28 | 50.74765 | 16.74293 | 37783 ft | 374 kts | 237° |
| 2026-05-06 16:29 | 50.72062 | 16.67278 | 37786 ft | 374 kts | 239° |
| 2026-05-06 16:29 | 50.69485 | 16.60147 | 37787 ft | 374 kts | 239° |
| 2026-05-06 16:30 | 50.67348 | 16.54214 | 37809 ft | 374 kts | 239° |
| 2026-05-06 16:30 | 50.64312 | 16.45922 | 37798 ft | 374 kts | 239° |
| 2026-05-06 16:31 | 50.61700 | 16.38844 | 37788 ft | 374 kts | 238° |
| 2026-05-06 16:31 | 50.59077 | 16.31779 | 37789 ft | 374 kts | 238° |
| 2026-05-06 16:32 | 50.56450 | 16.24727 | 37791 ft | 373 kts | 238° |
| 2026-05-06 16:32 | 50.53822 | 16.17681 | 37791 ft | 373 kts | 238° |
| 2026-05-06 16:33 | 50.51191 | 16.10650 | 37791 ft | 373 kts | 238° |
| 2026-05-06 16:34 | 50.47250 | 16.00168 | 37786 ft | 373 kts | 238° |
| 2026-05-06 16:34 | 50.44606 | 15.93155 | 37775 ft | 373 kts | 238° |
| 2026-05-06 16:35 | 50.41952 | 15.86155 | 37778 ft | 374 kts | 237° |
| 2026-05-06 16:35 | 50.39297 | 15.79139 | 37773 ft | 374 kts | 237° |
| 2026-05-06 16:36 | 50.36638 | 15.72115 | 37770 ft | 375 kts | 237° |
| 2026-05-06 16:36 | 50.33962 | 15.65100 | 37761 ft | 375 kts | 237° |
| 2026-05-06 16:37 | 50.31281 | 15.58089 | 37765 ft | 375 kts | 237° |
| 2026-05-06 16:37 | 50.28607 | 15.51105 | 37744 ft | 375 kts | 237° |
| 2026-05-06 16:38 | 50.25912 | 15.44103 | 37750 ft | 376 kts | 237° |
| 2026-05-06 16:38 | 50.23217 | 15.37099 | 37759 ft | 376 kts | 237° |
| 2026-05-06 16:39 | 50.20979 | 15.31280 | 37787 ft | 376 kts | 237° |
| 2026-05-06 16:39 | 50.18269 | 15.24284 | 37772 ft | 377 kts | 237° |
| 2026-05-06 16:40 | 50.15492 | 15.17137 | 37772 ft | 394 kts | 237° |
| 2026-05-06 16:40 | 50.12598 | 15.09713 | 37771 ft | 405 kts | 237° |
| 2026-05-06 16:41 | 50.09669 | 15.02191 | 37770 ft | 407 kts | 237° |
| 2026-05-06 16:41 | 50.06715 | 14.94639 | 37776 ft | 407 kts | 237° |
| 2026-05-06 16:42 | 50.03761 | 14.87122 | 37778 ft | 407 kts | 236° |
| 2026-05-06 16:42 | 50.00807 | 14.79620 | 37778 ft | 407 kts | 236° |
| 2026-05-06 16:43 | 49.97856 | 14.72113 | 37782 ft | 407 kts | 236° |
| 2026-05-06 16:43 | 49.94885 | 14.64609 | 37790 ft | 408 kts | 237° |
| 2026-05-06 16:44 | 49.91899 | 14.57108 | 37762 ft | 409 kts | 236° |
| 2026-05-06 16:44 | 49.88904 | 14.49604 | 37763 ft | 409 kts | 236° |
| 2026-05-06 16:45 | 49.85907 | 14.42106 | 37763 ft | 409 kts | 237° |
| 2026-05-06 16:45 | 49.82908 | 14.34602 | 37765 ft | 410 kts | 236° |
| 2026-05-06 16:46 | 49.79904 | 14.27110 | 37761 ft | 410 kts | 236° |
| 2026-05-06 16:46 | 49.76894 | 14.19628 | 37759 ft | 409 kts | 236° |
| 2026-05-06 16:47 | 49.73875 | 14.12167 | 37792 ft | 409 kts | 236° |
| 2026-05-06 16:47 | 49.70854 | 14.04718 | 37766 ft | 409 kts | 236° |
| 2026-05-06 16:48 | 49.67828 | 13.97261 | 37760 ft | 410 kts | 236° |
| 2026-05-06 16:48 | 49.64790 | 13.89808 | 37752 ft | 410 kts | 236° |
| 2026-05-06 16:49 | 49.61748 | 13.82354 | 37748 ft | 411 kts | 236° |
| 2026-05-06 16:49 | 49.58701 | 13.74920 | 37533 ft | 409 kts | 235° |
| 2026-05-06 16:49 | 49.57178 | 13.71220 | 37246 ft | 409 kts | 236° |
| 2026-05-06 16:50 | 49.55655 | 13.67519 | 36979 ft | 409 kts | 236° |
| 2026-05-06 16:50 | 49.54137 | 13.63824 | 36715 ft | 408 kts | 236° |
| 2026-05-06 16:50 | 49.52622 | 13.60142 | 36451 ft | 407 kts | 236° |
| 2026-05-06 16:50 | 49.51107 | 13.56469 | 36191 ft | 406 kts | 236° |
| 2026-05-06 16:51 | 49.49591 | 13.52796 | 35748 ft | 407 kts | 237° |
| 2026-05-06 16:51 | 49.48063 | 13.49095 | 35514 ft | 413 kts | 237° |
| 2026-05-06 16:51 | 49.46518 | 13.45359 | 34974 ft | 416 kts | 237° |
| 2026-05-06 16:51 | 49.44966 | 13.41615 | 34048 ft | 419 kts | 237° |
| 2026-05-06 16:52 | 49.43387 | 13.37823 | 33001 ft | 422 kts | 237° |
| 2026-05-06 16:52 | 49.41795 | 13.34010 | 31912 ft | 426 kts | 237° |
| 2026-05-06 16:52 | 49.40189 | 13.30167 | 30756 ft | 431 kts | 237° |
| 2026-05-06 16:52 | 49.38560 | 13.26278 | 29589 ft | 435 kts | 237° |
| 2026-05-06 16:53 | 49.36919 | 13.22368 | 28289 ft | 438 kts | 237° |
| 2026-05-06 16:53 | 49.35262 | 13.18420 | 27039 ft | 440 kts | 237° |
| 2026-05-06 16:53 | 49.33524 | 13.14645 | 25860 ft | 439 kts | 230° |
| 2026-05-06 16:53 | 49.31387 | 13.11290 | 25167 ft | 441 kts | 221° |
| 2026-05-06 16:54 | 49.28974 | 13.08369 | 24890 ft | 443 kts | 218° |
| 2026-05-06 16:54 | 49.26536 | 13.05474 | 24370 ft | 443 kts | 218° |
| 2026-05-06 16:54 | 49.24099 | 13.02570 | 22912 ft | 446 kts | 218° |
| 2026-05-06 16:54 | 49.21652 | 12.99654 | 21789 ft | 443 kts | 218° |
| 2026-05-06 16:55 | 49.19263 | 12.96814 | 21383 ft | 429 kts | 217° |
| 2026-05-06 16:55 | 49.16923 | 12.94044 | 20820 ft | 423 kts | 217° |
| 2026-05-06 16:55 | 49.14608 | 12.91310 | 20264 ft | 419 kts | 217° |
| 2026-05-06 16:55 | 49.12308 | 12.88598 | 19721 ft | 416 kts | 217° |
| 2026-05-06 16:56 | 49.10029 | 12.85917 | 19171 ft | 413 kts | 217° |
| 2026-05-06 16:56 | 49.07760 | 12.83251 | 18635 ft | 410 kts | 217° |
| 2026-05-06 16:56 | 49.05506 | 12.80611 | 18094 ft | 407 kts | 217° |
| 2026-05-06 16:56 | 49.03274 | 12.77995 | 17506 ft | 404 kts | 217° |
| 2026-05-06 16:57 | 49.01049 | 12.75387 | 17000 ft | 402 kts | 217° |
| 2026-05-06 16:57 | 48.98841 | 12.72798 | 16471 ft | 399 kts | 217° |
| 2026-05-06 16:57 | 48.96646 | 12.70224 | 15949 ft | 396 kts | 217° |
| 2026-05-06 16:57 | 48.94468 | 12.67679 | 15431 ft | 394 kts | 217° |
| 2026-05-06 16:58 | 48.92304 | 12.65154 | 14915 ft | 391 kts | 217° |
| 2026-05-06 16:58 | 48.90157 | 12.62648 | 14409 ft | 388 kts | 217° |
| 2026-05-06 16:58 | 48.88021 | 12.60161 | 13894 ft | 385 kts | 217° |
| 2026-05-06 16:58 | 48.85897 | 12.57702 | 13373 ft | 383 kts | 217° |
| 2026-05-06 16:59 | 48.83784 | 12.55256 | 12843 ft | 380 kts | 217° |
| 2026-05-06 16:59 | 48.81688 | 12.52824 | 12360 ft | 378 kts | 217° |
| 2026-05-06 16:59 | 48.79605 | 12.50408 | 11854 ft | 376 kts | 217° |
| 2026-05-06 16:59 | 48.77535 | 12.48011 | 11370 ft | 373 kts | 217° |
| 2026-05-06 17:00 | 48.75481 | 12.45638 | 10885 ft | 369 kts | 217° |
| 2026-05-06 17:00 | 48.73493 | 12.43337 | 10684 ft | 349 kts | 217° |
| 2026-05-06 17:00 | 48.71619 | 12.41170 | 10558 ft | 329 kts | 216° |
| 2026-05-06 17:00 | 48.69848 | 12.39125 | 10438 ft | 313 kts | 216° |
| 2026-05-06 17:01 | 48.68158 | 12.37175 | 10320 ft | 299 kts | 216° |
| 2026-05-06 17:01 | 48.66535 | 12.35305 | 10150 ft | 287 kts | 216° |
| 2026-05-06 17:01 | 48.64961 | 12.33499 | 9892 ft | 282 kts | 216° |
| 2026-05-06 17:01 | 48.63362 | 12.31834 | 9560 ft | 277 kts | 204° |
| 2026-05-06 17:02 | 48.61550 | 12.30899 | 9155 ft | 275 kts | 195° |
| 2026-05-06 17:02 | 48.59712 | 12.30130 | 8759 ft | 273 kts | 195° |
| 2026-05-06 17:02 | 48.57883 | 12.29384 | 8350 ft | 272 kts | 194° |
| 2026-05-06 17:02 | 48.56061 | 12.28644 | 7940 ft | 271 kts | 194° |
| 2026-05-06 17:03 | 48.54248 | 12.27909 | 7544 ft | 270 kts | 194° |
| 2026-05-06 17:03 | 48.52437 | 12.27179 | 7140 ft | 268 kts | 194° |
| 2026-05-06 17:03 | 48.50637 | 12.26458 | 6740 ft | 267 kts | 194° |
| 2026-05-06 17:03 | 48.48865 | 12.25752 | 6537 ft | 257 kts | 194° |
| 2026-05-06 17:04 | 48.47147 | 12.25068 | 6160 ft | 255 kts | 195° |
| 2026-05-06 17:04 | 48.45590 | 12.23868 | 5723 ft | 254 kts | 221° |
| 2026-05-06 17:04 | 48.44471 | 12.21814 | 5283 ft | 254 kts | 234° |
| 2026-05-06 17:04 | 48.43463 | 12.19644 | 5013 ft | 251 kts | 234° |
| 2026-05-06 17:05 | 48.42462 | 12.17467 | 4992 ft | 254 kts | 234° |
| 2026-05-06 17:05 | 48.41463 | 12.15275 | 4994 ft | 254 kts | 234° |
| 2026-05-06 17:05 | 48.40462 | 12.13081 | 5023 ft | 255 kts | 235° |
| 2026-05-06 17:05 | 48.39465 | 12.10934 | 5011 ft | 242 kts | 234° |
| 2026-05-06 17:06 | 48.38715 | 12.08733 | 4829 ft | 235 kts | 255° |
| 2026-05-06 17:06 | 48.38489 | 12.06328 | 4556 ft | 231 kts | 263° |
| 2026-05-06 17:06 | 48.38323 | 12.03941 | 4250 ft | 228 kts | 263° |
| 2026-05-06 17:06 | 48.38152 | 12.01583 | 3940 ft | 225 kts | 263° |
| 2026-05-06 17:07 | 48.37981 | 11.99288 | 3654 ft | 217 kts | 263° |
| 2026-05-06 17:07 | 48.37816 | 11.97075 | 3372 ft | 208 kts | 263° |
| 2026-05-06 17:07 | 48.37659 | 11.94990 | 3113 ft | 192 kts | 263° |
| 2026-05-06 17:07 | 48.37515 | 11.93071 | 2908 ft | 177 kts | 263° |
| 2026-05-06 17:08 | 48.37378 | 11.91280 | 2640 ft | 163 kts | 263° |
| 2026-05-06 17:08 | 48.37260 | 11.89731 | 2417 ft | 143 kts | 263° |
| 2026-05-06 17:08 | 48.37163 | 11.88331 | 2256 ft | 127 kts | 264° |
| 2026-05-06 17:08 | 48.37082 | 11.87019 | 2091 ft | 128 kts | 264° |
| 2026-05-06 17:09 | 48.36996 | 11.85682 | 1970 ft | 128 kts | 263° |
| 2026-05-06 17:09 | 48.36886 | 11.84354 | 1813 ft | 126 kts | 262° |
| 2026-05-06 17:09 | 48.36773 | 11.83066 | 1644 ft | 123 kts | 262° |
| 2026-05-06 17:09 | 48.36666 | 11.81822 | 1508 ft | 117 kts | 262° |
| 2026-05-06 17:10 | 48.36578 | 11.80724 | 1477 ft | 87 kts | 263° |
| 2026-05-06 17:10 | 48.36526 | 11.80034 | 1486 ft | 51 kts | 263° |
| 2026-05-06 17:10 | 48.36437 | 11.79671 | 1483 ft | 34 kts | 233° |
| 2026-05-06 17:10 | 48.36319 | 11.79436 | 1481 ft | 23 kts | 234° |
| 2026-05-06 17:11 | 48.36249 | 11.79317 | 1471 ft | 13 kts | 210° |
| 2026-05-06 17:11 | 48.36152 | 11.79303 | 1486 ft | 16 kts | 174° |
| 2026-05-06 17:11 | 48.36037 | 11.79324 | 1486 ft | 18 kts | 173° |
| 2026-05-06 17:11 | 48.35954 | 11.79339 | 1482 ft | 9 kts | 172° |
| 2026-05-06 17:12 | 48.35885 | 11.79377 | 1483 ft | 10 kts | 161° |
| 2026-05-06 17:12 | 48.35804 | 11.79398 | 1482 ft | 13 kts | 156° |
| 2026-05-06 17:12 | 48.35793 | 11.79523 | 1479 ft | 13 kts | 82° |
| 2026-05-06 17:12 | 48.35804 | 11.79675 | 1478 ft | 16 kts | 84° |
| 2026-05-06 17:13 | 48.35817 | 11.79842 | 1478 ft | 17 kts | 83° |
| 2026-05-06 17:13 | 48.35825 | 11.80021 | 1486 ft | 17 kts | 103° |
| 2026-05-06 17:13 | 48.35754 | 11.80038 | 1476 ft | 10 kts | 240° |
| 2026-05-06 17:13 | 48.35745 | 11.79942 | 1479 ft | 5 kts | 264° |
| 2026-05-06 17:14 | 48.35744 | 11.79932 | 1482 ft | 0 kts | 263° |